Hit Tracker is now ESPN Home Run Tracker! Hit Tracker founder Greg Rybarczyk is now collaborating with the ESPN Stats & Information Group to continue tracking all MLB home runs, and helping baseball fans know "How Far It Really Went!™" Please credit any information on this site to ESPN Stats & Information Group. For more information and analysis on home runs, please contact founder Greg Rybarczyk. E-Mail ESPN Home Run Tracker
Main Page | Ballparks | Park Overlays | Glossary | Highlight Homers | Feedback | Bio | 3 Types of HR's | AAA Home Run Derby Last Updated: September 23, 2017, 9:41 pm PST
If you want to know "How Far It Really Went!", then you've come to the right place! Welcome to the ESPN Home Run Tracker, where you can find accurate, transparently verifiable distances for every home run hit in MLB games. Please also check out the ESPN MLB Scoreboard throughout the 2017 season! Contact us at grybar@hittrackeronline.com.
Season:
Ballpark detail for Nationals Park
Ballpark # of Home Runs HR per game Avg.
True
Distance
Avg.
Speed
Off
Bat
Avg.
Std.
Dist.
Nationals Park 200 2.60 403.2 104.3 401.5

Scatter Plot of Home Runs Nationals Park
 Overlay Ballpark:
Without range rings   With range rings

2017 Season Home Runs for Nationals Park
Click headers to sort
Date Video Path Hitter Hitter
Team
Pitcher Pitcher
Team
INN Ballpark Type/
Luck
True
Dist.
Speed
Off
Bat
Elev.
Angle
Horiz.
Angle
Apex Impact Due To: Std.
Dist.
#
Parks
Wind Temp. Alt. ^
06/24/17 Video View Kivlehan, Patrick CIN Ross, Joe WSH 6 Nationals Pa... PL 355 100.6 37.9 118.7 131 -7 4 4 357 30
04/16/17 Video View Harper, Bryce WSH Eickhoff, Jerad PHI 3 Nationals Pa... PL 417 101.5 30.2 80.0 99 10 3 3 405 27
06/24/17 Video View Taylor, Michael WSH Hernandez, Ariel CIN 6 Nationals Pa... PL 402 100.3 27.8 81.6 87 2 2 2 399 25
04/14/17 Video View Joseph, Tommy PHI Strasburg, Stephen WSH 2 Nationals Pa... JE 410 101.3 27.9 89.0 100 -1 0 0 411 21
04/12/17 Video View Piscotty, Stephen STL Blanton, Joe WSH 9 Nationals Pa... PL 422 105.3 30.6 101.6 118 -2 1 0 422 30
04/11/17 Video View Diaz, Aledmys STL Blanton, Joe WSH 8 Nationals Pa... PL 420 108.1 24.2 103.5 77 0 1 0 420 30
04/11/17 Video View Murphy, Daniel WSH Lynn, Lance STL 5 Nationals Pa... PL 383 102.1 31.5 60.5 95 0 1 0 382 30
04/11/17 Video View Wieters, Matt WSH Lynn, Lance STL 4 Nationals Pa... JE 378 102.6 25.6 67.2 69 -1 1 0 377 26
04/11/17 Video View Werth, Jayson WSH Lynn, Lance STL 4 Nationals Pa... JE 389 97.8 30.3 100.0 96 2 1 0 385 11
04/11/17 Video View Grichuk, Randal STL Gonzalez, Gio WSH 4 Nationals Pa... PL 412 102.7 28.6 79.5 98 1 1 0 410 28
04/10/17 Video View Gyorko, Jedd STL Kelley, Shawn WSH 9 Nationals Pa... JE 391 99.1 27.7 80.4 86 1 0 0 390 10
04/06/17 Video View Zimmerman, Ryan WSH Tazawa, Junichi MIA 8 Nationals Pa... JE/L 416 104.5 23.2 91.2 74 0 -1 0 417 20
04/06/17 Video View Realmuto, J.T. MIA Kelley, Shawn WSH 8 Nationals Pa... PL 407 100.3 29.1 94.7 99 4 -2 0 405 17
04/06/17 Video View Werth, Jayson WSH Barraclough, Kyle MIA 7 Nationals Pa... JE 390 99.4 33.3 99.3 119 3 -3 0 390 20
04/06/17 Video View Eaton, Adam WSH Koehler, Tom MIA 1 Nationals Pa... JE 382 97.2 32.1 79.1 106 3 -1 0 380 3
04/05/17 Video View Realmuto, J.T. MIA Romero, Enny WSH 8 Nationals Pa... JE 378 108.4 23.0 119.5 58 0 0 0 379 30
04/05/17 Video View Zimmerman, Ryan WSH Straily, Dan MIA 2 Nationals Pa... JE 386 103.2 24.1 74.3 65 0 0 0 386 21
04/03/17 Video View Lind, Adam WSH Phelps, David MIA 7 Nationals Pa... JE/L 412 109.2 18.8 86.3 59 4 0 0 408 4
04/03/17 Video View Harper, Bryce WSH Phelps, David MIA 6 Nationals Pa... PL 403 102.4 28.3 74.0 88 5 0 0 399 29
04/15/17 Video View Heisey, Chris WSH Hellickson, Jeremy PHI 7 Nationals Pa... JE 382 107.7 23.0 115.1 59 0 0 0 383 30
04/15/17 Video View Hernandez, Cesar PHI Blanton, Joe WSH 8 Nationals Pa... PL 391 101.7 31.1 72.3 108 -6 1 0 395 30
04/16/17 Video View Hernandez, Cesar PHI Gonzalez, Gio WSH 1 Nationals Pa... PL 398 101.3 27.9 105.8 81 4 2 0 392 30
04/16/17 Video View Harper, Bryce WSH Benoit, Joaquin PHI 9 Nationals Pa... JE 419 102.1 26.7 93.0 85 4 2 0 414 18
04/28/17 Video View d'Arnaud, Travis NYM Scherzer, Max WSH 2 Nationals Pa... ND 449 114.0 24.4 106.5 83 1 1 0 447 30
04/28/17 Video View Wieters, Matt WSH deGrom, Jacob NYM 2 Nationals Pa... JE 414 101.7 26.6 92.1 87 2 1 0 411 16
04/28/17 Video View Zimmerman, Ryan WSH deGrom, Jacob NYM 2 Nationals Pa... JE 379 98.2 31.8 74.7 105 -4 2 0 380 23
04/28/17 Video View d'Arnaud, Travis NYM Scherzer, Max WSH 4 Nationals Pa... PL 410 104.6 24.0 99.3 73 1 1 0 408 20
04/28/17 Video View Zimmerman, Ryan WSH Reed, Addison NYM 8 Nationals Pa... PL 408 101.0 30.2 82.0 105 2 1 0 405 25
04/29/17 Video View Conforto, Michael NYM Strasburg, Stephen WSH 5 Nationals Pa... PL 406 105.1 25.8 75.4 83 0 -2 0 409 30
04/29/17 Video View Conforto, Michael NYM Romero, Enny WSH 8 Nationals Pa... JE 393 101.3 25.2 100.8 74 0 0 0 392 10
04/29/17 Video View Zimmerman, Ryan WSH Reed, Addison NYM 8 Nationals Pa... ND 455 111.7 28.7 105.2 112 5 0 0 450 30
04/29/17 Video View Reyes, Jose NYM Kelley, Shawn WSH 9 Nationals Pa... PL 402 101.5 29.9 74.7 97 4 0 0 398 29
04/30/17 Video View Rivera, Rene NYM Ross, Joe WSH 2 Nationals Pa... PL 390 103.5 26.8 112.5 77 0 0 0 389 30
04/30/17 Video View Bruce, Jay NYM Ross, Joe WSH 3 Nationals Pa... PL 404 100.5 28.1 96.9 93 1 0 0 403 19
04/30/17 Video View Rendon, Anthony WSH Gilmartin, Sean NYM 3 Nationals Pa... ND 423 109.6 30.7 115.7 109 0 1 0 423 30
04/30/17 Video View Rendon, Anthony WSH Gilmartin, Sean NYM 4 Nationals Pa... PL 406 100.3 29.5 99.7 95 7 0 0 399 20
04/30/17 Video View Wieters, Matt WSH Smoker, Josh NYM 6 Nationals Pa... ND 412 106.8 30.7 116.6 101 3 1 0 408 30
04/30/17 Video View Wieters, Matt WSH Smoker, Josh NYM 7 Nationals Pa... PL 407 103.3 24.1 96.7 74 0 0 0 406 18
04/30/17 Video View Harper, Bryce WSH Plawecki, Kevin NYM 8 Nationals Pa... PL 416 110.5 20.3 81.6 61 0 0 0 416 27
04/30/17 Video View Rendon, Anthony WSH Plawecki, Kevin NYM 8 Nationals Pa... JE 389 105.0 24.6 110.6 68 0 0 0 389 30
04/30/17 Video View Lind, Adam WSH Plawecki, Kevin NYM 8 Nationals Pa... PL 419 102.5 28.7 89.4 105 0 0 0 419 28
05/02/17 Video View Lamb, Jake ARI Roark, Tanner WSH 4 Nationals Pa... PL 410 105.9 26.5 72.0 83 0 0 0 410 30
05/02/17 Video View Herrmann, Chris ARI Roark, Tanner WSH 4 Nationals Pa... JE 387 101.4 26.3 106.0 77 0 0 0 387 25
05/02/17 Video View Hazelbaker, Jeremy ARI Blanton, Joe WSH 9 Nationals Pa... JE 420 109.6 19.1 89.3 60 0 0 0 420 22
05/03/17 Video View Owings, Chris ARI Gonzalez, Gio WSH 1 Nationals Pa... ND 412 106.8 31.5 112.2 113 0 -1 0 413 30
05/04/17 Video View Lamb, Jake ARI Scherzer, Max WSH 7 Nationals Pa... JE 392 102.5 23.6 99.8 68 0 0 0 392 7
05/04/17 Video View Goldschmidt, Paul ARI Blanton, Joe WSH 9 Nationals Pa... PL 361 102.4 39.5 113.0 148 10 -1 0 352 26
05/10/17 Video View Trumbo, Mark BAL Strasburg, Stephen WSH 5 Nationals Pa... ND 455 112.6 24.2 99.9 90 0 -1 0 456 30
05/10/17 Video View Machado, Manny BAL Treinen, Blake WSH 7 Nationals Pa... PL 372 100.0 31.7 112.5 102 -7 0 0 379 30
05/10/17 Video View Taylor, Michael WSH Asher, Alec BAL 8 Nationals Pa... PL 421 112.0 22.3 105.6 68 0 -1 0 422 30
05/10/17 Video View Werth, Jayson WSH Brach, Brad BAL 9 Nationals Pa... JE 391 101.6 27.0 74.3 81 0 -1 0 392 29
05/13/17 Video View Turner, Trea WSH Pivetta, Nick PHI 5 Nationals Pa... JE 398 102.6 23.1 84.1 71 0 -1 0 398 8
05/13/17 Video View Harper, Bryce WSH Ramos, Edubray PHI 9 Nationals Pa... PL 434 109.9 20.6 89.5 70 0 -1 0 434 28
05/14/17 Video View Harper, Bryce WSH Hellickson, Jeremy PHI 1 Nationals Pa... JE 395 110.4 21.1 72.3 56 0 0 0 395 28
05/14/17 Video View Turner, Trea WSH Hellickson, Jeremy PHI 5 Nationals Pa... PL 411 110.2 24.3 113.3 71 0 1 0 410 30
05/14/17 Video View Joseph, Tommy PHI Gonzalez, Gio WSH 7 Nationals Pa... PL 412 104.6 27.1 74.3 84 3 1 0 408 30
05/14/17 Video View Altherr, Aaron PHI Kelley, Shawn WSH 9 Nationals Pa... PL 395 101.2 26.8 103.6 82 2 1 0 393 20
05/14/17 Video View Taylor, Michael WSH Neshek, Pat PHI 8 Nationals Pa... JE 349 96.8 32.3 119.4 92 -8 0 0 356 29
05/23/17 Video View Rendon, Anthony WSH Bergman, Christian SEA 2 Nationals Pa... PL 361 103.1 37.7 115.5 140 -4 -2 0 367 30
05/23/17 Video View Rendon, Anthony WSH Bergman, Christian SEA 4 Nationals Pa... PL 418 102.7 27.9 89.0 101 0 -1 0 419 28
05/23/17 Video View Harper, Bryce WSH Bergman, Christian SEA 4 Nationals Pa... ND 450 109.1 25.2 86.9 97 0 -1 0 451 30
05/23/17 Video View Werth, Jayson WSH Bergman, Christian SEA 4 Nationals Pa... PL 421 105.4 27.5 101.8 97 0 -1 0 422 30
05/23/17 Video View Zunino, Mike SEA Ross, Joe WSH 6 Nationals Pa... JE 371 100.2 27.7 114.3 75 0 -1 0 372 27
05/24/17 Video View Rendon, Anthony WSH Gaviglio, Sam SEA 1 Nationals Pa... JE 393 99.7 31.7 97.9 114 -3 -1 0 396 18
05/25/17 Video View Rendon, Anthony WSH Miranda, Ariel SEA 5 Nationals Pa... ND 410 107.8 30.1 122.1 93 4 0 0 407 30
05/25/17 Video View Cruz, Nelson SEA Turner, Jacob WSH 6 Nationals Pa... JE 417 108.5 20.1 93.6 63 0 0 0 417 20
05/26/17 Video View Turner, Trea WSH Perdomo, Luis SD 1 Nationals Pa... PL 422 104.1 25.4 87.3 88 0 1 0 422 27
05/26/17 Video View Schimpf, Ryan SD Scherzer, Max WSH 4 Nationals Pa... PL 359 98.0 30.4 58.9 80 0 1 0 358 29
05/26/17 Video View Taylor, Michael WSH Perdomo, Luis SD 4 Nationals Pa... PL 422 104.1 27.9 98.2 98 1 0 0 421 30
05/26/17 Video View Harper, Bryce WSH Yates, Kirby SD 7 Nationals Pa... ND 414 112.2 33.9 66.8 144 -12 0 0 425 30
05/27/17 Video View Taylor, Michael WSH Richard, Clayton SD 6 Nationals Pa... JE 413 110.2 18.9 94.6 56 0 0 0 412 15
05/28/17 Video View Schimpf, Ryan SD Ross, Joe WSH 1 Nationals Pa... PL 373 102.8 27.7 56.6 72 0 0 0 373 30
06/08/17 Video View Drew, Stephen WSH Jimenez, Ubaldo BAL 5 Nationals Pa... ND 405 106.5 28.9 62.9 90 1 0 0 405 30
06/09/17 Video View Lucroy, Jonathan TEX Roark, Tanner WSH 5 Nationals Pa... PL 382 100.4 31.4 113.5 97 0 1 0 380 30
06/09/17 Video View Odor, Rougned TEX Roark, Tanner WSH 7 Nationals Pa... PL 405 108.4 24.4 67.4 67 2 1 0 402 30
06/10/17 Video View Lind, Adam WSH Barnette, Tony TEX 6 Nationals Pa... PL 414 101.0 34.2 85.8 126 12 4 0 398 6
06/10/17 Video View Choo, Shin-Soo TEX Glover, Koda WSH 9 Nationals Pa... PL 410 99.8 30.4 83.6 102 7 3 0 400 8
06/10/17 Video View Chirinos, Robinson TEX Kelley, Shawn WSH 11 Nationals Pa... JE 373 98.8 35.2 110.4 118 -1 5 0 368 21
06/11/17 Video View Goodwin, Brian WSH Bibens-Dirkx, Austin TEX 1 Nationals Pa... JE 386 106.4 24.5 62.0 62 3 0 0 382 29
06/11/17 Video View Choo, Shin-Soo TEX Scherzer, Max WSH 3 Nationals Pa... JE 406 104.9 22.8 97.2 64 -1 0 0 407 16
06/12/17 Video View Markakis, Nick ATL Strasburg, Stephen WSH 1 Nationals Pa... JE/L 394 97.7 32.9 99.9 107 9 4 0 382 3
06/12/17 Video View Kemp, Matt ATL Strasburg, Stephen WSH 1 Nationals Pa... JE 405 107.1 21.0 97.1 59 -1 0 0 407 15
06/12/17 Video View Turner, Trea WSH Foltynewicz, Mike ATL 1 Nationals Pa... JE/L 414 100.4 31.4 92.0 110 6 3 0 405 9
06/12/17 Video View Goodwin, Brian WSH Foltynewicz, Mike ATL 2 Nationals Pa... PL 358 97.4 30.6 58.9 80 0 2 0 356 25
06/12/17 Video View Adams, Matt ATL Strasburg, Stephen WSH 3 Nationals Pa... PL 428 104.4 26.1 87.9 91 0 2 0 426 28
06/12/17 Video View Harper, Bryce WSH Foltynewicz, Mike ATL 4 Nationals Pa... PL 405 109.3 23.8 67.9 66 0 1 0 403 30
06/12/17 Video View Flowers, Tyler ATL Albers, Matt WSH 9 Nationals Pa... JE 354 96.0 34.9 62.8 103 0 3 0 352 21
06/12/17 Video View Adams, Matt ATL Turner, Jacob WSH 8 Nationals Pa... PL 397 103.1 26.1 74.1 77 0 1 0 396 29
06/13/17 Video View Zimmerman, Ryan WSH Dickey, R.A. ATL 1 Nationals Pa... PL 422 110.0 21.7 99.9 65 0 1 0 421 30
06/13/17 Video View Murphy, Daniel WSH Dickey, R.A. ATL 1 Nationals Pa... JE/L 394 97.9 33.8 85.5 117 5 4 0 385 0
06/13/17 Video View Ruiz, Rio ATL Ross, Joe WSH 6 Nationals Pa... PL 415 108.8 24.1 72.5 72 0 1 0 413 30
06/13/17 Video View Zimmerman, Ryan WSH Dickey, R.A. ATL 6 Nationals Pa... ND 439 108.4 25.9 101.5 88 3 2 0 435 30
06/14/17 Video View Goodwin, Brian WSH Teheran, Julio ATL 2 Nationals Pa... ND 404 104.7 35.1 65.0 124 9 5 0 389 30
06/14/17 Video View Suzuki, Kurt ATL Roark, Tanner WSH 3 Nationals Pa... JE 400 103.2 24.3 100.3 72 0 1 0 399 19
06/23/17 Video View Gennett, Scooter CIN Strasburg, Stephen WSH 1 Nationals Pa... PL 399 99.8 32.3 76.1 107 7 3 0 389 27
06/23/17 Video View Goodwin, Brian WSH Castillo, Luis CIN 1 Nationals Pa... PL 412 105.1 25.0 77.2 75 3 1 0 409 28
06/23/17 Video View Rendon, Anthony WSH Castillo, Luis CIN 4 Nationals Pa... ND 451 107.2 28.1 96.9 102 9 3 0 440 30
06/23/17 Video View Murphy, Daniel WSH Lorenzen, Michael CIN 6 Nationals Pa... JE 359 107.7 22.0 53.7 50 0 1 0 359 23
06/23/17 Video View Goodwin, Brian WSH Peralta, Wandy CIN 7 Nationals Pa... JE 396 106.7 22.6 74.6 62 0 1 0 395 25
06/24/17 Video View Taylor, Michael WSH Bonilla, Lisalverto CIN 4 Nationals Pa... PL 442 109.6 22.2 94.2 76 2 1 0 439 29
06/25/17 Video View Gennett, Scooter CIN Roark, Tanner WSH 2 Nationals Pa... PL 385 102.7 27.1 67.2 78 -2 1 0 385 30
06/25/17 Video View Taylor, Michael WSH Feldman, Scott CIN 4 Nationals Pa... PL 411 102.5 28.7 99.9 102 -1 2 0 411 28
06/26/17 Video View Contreras, Willson CHC Gonzalez, Gio WSH 1 Nationals Pa... ND 409 106.7 28.0 116.7 83 4 1 0 404 30
06/28/17 Video View Rendon, Anthony WSH Lackey, John CHC 2 Nationals Pa... ND 422 110.2 24.6 109.2 76 0 1 0 421 30
06/28/17 Video View Wieters, Matt WSH Lackey, John CHC 2 Nationals Pa... JE 405 102.7 23.1 88.1 72 0 0 0 404 0
06/28/17 Video View Contreras, Willson CHC Strasburg, Stephen WSH 4 Nationals Pa... PL 360 98.3 36.7 116.4 119 2 2 0 356 26
06/28/17 Video View Murphy, Daniel WSH Lackey, John CHC 5 Nationals Pa... PL 408 100.6 35.3 84.3 130 16 2 0 390 5
06/28/17 Video View Rizzo, Anthony CHC Romero, Enny WSH 8 Nationals Pa... ND 446 108.4 30.0 82.9 125 0 1 0 445 30
06/29/17 Video View Candelario, Jeimer CHC Ross, Joe WSH 7 Nationals Pa... PL 420 102.5 28.4 82.6 95 4 2 0 413 25
06/29/17 Video View Rendon, Anthony WSH Edwards Jr., Carl CHC 7 Nationals Pa... PL 406 101.4 28.5 101.6 92 2 2 0 402 30
07/03/17 Video View Taylor, Michael WSH Blevins, Jerry NYM 8 Nationals Pa... PL 391 100.8 28.8 72.7 88 0 2 0 389 30
07/03/17 Video View Granderson, Curtis NYM Albers, Matt WSH 9 Nationals Pa... JE/L 379 100.8 37.2 77.3 142 0 5 0 374 10
07/04/17 Video View Reyes, Jose NYM Ross, Joe WSH 1 Nationals Pa... ND 396 104.7 30.9 58.5 94 0 3 0 393 30
07/04/17 Video View Rivera, Rene NYM Ross, Joe WSH 4 Nationals Pa... PL 407 100.5 29.9 85.7 106 -3 3 0 406 15
07/04/17 Video View Bruce, Jay NYM Perez, Oliver WSH 9 Nationals Pa... PL 413 105.9 21.4 87.1 66 0 0 0 412 12
07/06/17 Video View Goodwin, Brian WSH Foltynewicz, Mike ATL 5 Nationals Pa... PL 412 105.5 22.3 95.4 69 0 0 0 412 20
07/06/17 Video View Suzuki, Kurt ATL Gonzalez, Gio WSH 6 Nationals Pa... PL 364 98.7 35.9 114.0 118 0 2 0 363 25
07/07/17 Video View Freeman, Freddie ATL Scherzer, Max WSH 7 Nationals Pa... PL 376 101.9 37.2 61.4 127 6 4 0 366 30
07/08/17 Video View Markakis, Nick ATL Roark, Tanner WSH 7 Nationals Pa... JE 372 109.2 21.8 59.3 52 0 1 0 371 25
07/08/17 Video View Adams, Matt ATL Solis, Sammy WSH 9 Nationals Pa... JE/L 393 98.4 28.0 98.8 84 4 2 0 388 2
07/09/17 Video View Freeman, Freddie ATL Ross, Joe WSH 3 Nationals Pa... JE/L 388 96.4 33.1 97.5 106 9 2 0 378 1
07/09/17 Video View Camargo, Johan ATL Grace, Matt WSH 6 Nationals Pa... PL 419 109.7 23.6 106.4 74 -1 1 0 418 30
07/25/17 Video View Shaw, Travis MIL Jackson, Edwin WSH 4 Nationals Pa... JE 397 99.9 26.3 95.8 84 0 0 0 396 2
07/25/17 Video View Thames, Eric MIL Jackson, Edwin WSH 5 Nationals Pa... ND 432 111.4 31.0 63.5 113 0 1 0 430 30
07/25/17 Video View Pina, Manny MIL Jackson, Edwin WSH 5 Nationals Pa... JE 396 99.6 26.8 84.0 85 0 1 0 395 4
07/26/17 Video View Santana, Domingo MIL Gonzalez, Gio WSH 1 Nationals Pa... ND 475 115.0 26.2 100.9 106 -1 3 0 473 30
07/26/17 Video View Murphy, Daniel WSH Nelson, Jimmy MIL 7 Nationals Pa... PL 375 99.3 33.6 69.3 111 -2 1 0 376 29
07/26/17 Video View Brinson, Lewis MIL Doolittle, Sean WSH 9 Nationals Pa... ND 460 112.1 27.8 101.0 113 -1 1 0 460 30
07/27/17 Video View Harper, Bryce WSH Blazek, Michael MIL 1 Nationals Pa... PL/L 387 99.4 34.4 71.1 114 9 3 0 375 25
07/27/17 Video View Goodwin, Brian WSH Blazek, Michael MIL 3 Nationals Pa... JE/L 385 98.9 33.2 71.4 106 6 3 0 377 25
07/27/17 Video View Difo, Wilmer WSH Blazek, Michael MIL 3 Nationals Pa... ND 432 105.1 28.1 81.0 97 5 2 0 426 30
07/27/17 Video View Harper, Bryce WSH Blazek, Michael MIL 3 Nationals Pa... PL 412 102.9 25.7 98.3 78 3 1 0 408 21
07/27/17 Video View Zimmerman, Ryan WSH Blazek, Michael MIL 3 Nationals Pa... JE 399 112.1 19.3 101.6 51 -1 0 0 400 18
07/27/17 Video View Rendon, Anthony WSH Blazek, Michael MIL 3 Nationals Pa... ND 432 106.2 29.1 103.3 104 5 2 0 425 30
07/27/17 Video View Shaw, Travis MIL Scherzer, Max WSH 4 Nationals Pa... ND 425 111.8 35.6 61.4 141 11 5 0 410 30
07/27/17 Video View Zimmerman, Ryan WSH Peralta, Wily MIL 4 Nationals Pa... PL 410 101.5 30.4 75.3 97 10 2 0 398 29
07/27/17 Video View Lobaton, Jose WSH Peralta, Wily MIL 4 Nationals Pa... ND 421 108.1 29.1 65.0 95 3 2 0 416 30
07/27/17 Video View Brinson, Lewis MIL Romero, Enny WSH 7 Nationals Pa... ND 438 108.2 27.2 104.1 94 4 2 0 432 30
07/29/17 Video View Story, Trevor COL Roark, Tanner WSH 2 Nationals Pa... PL 402 100.7 30.1 85.3 111 -6 1 0 407 18
07/30/17 Video View Difo, Wilmer WSH Freeland, Kyle COL 1 Nationals Pa... ND 440 111.5 26.1 105.6 97 -6 2 0 444 30
07/30/17 Video View Zimmerman, Ryan WSH Freeland, Kyle COL 3 Nationals Pa... JE 349 95.1 32.8 60.7 88 -1 2 0 348 24
07/30/17 Video View Zimmerman, Ryan WSH Neshek, Pat COL 7 Nationals Pa... ND 439 110.1 23.1 82.2 80 -1 1 0 439 30
07/30/17 Video View Lind, Adam WSH Gray, Jon COL 5 Nationals Pa... PL 399 102.1 27.0 103.9 84 0 0 0 398 30
07/30/17 Video View Goodwin, Brian WSH Gray, Jon COL 5 Nationals Pa... JE 389 99.1 29.7 103.0 95 0 1 0 388 25
08/07/17 Video View Harper, Bryce WSH Despaigne, Odrisamer MIA 4 Nationals Pa... PL 402 101.3 32.2 79.6 117 0 1 0 401 28
08/07/17 Video View Stanton, Giancarlo MIA Scherzer, Max WSH 6 Nationals Pa... PL 405 102.5 33.7 98.6 131 0 1 0 404 27
08/08/17 Video View Dietrich, Derek MIA Cole, A.J. WSH 4 Nationals Pa... ND 427 111.1 24.3 71.9 77 0 1 0 426 30
08/08/17 Video View Stanton, Giancarlo MIA Cole, A.J. WSH 5 Nationals Pa... ND 440 108.3 31.6 98.2 135 0 2 0 439 30
08/09/17 Video View Zimmerman, Ryan WSH Conley, Adam MIA 2 Nationals Pa... PL 405 109.0 23.7 110.3 68 0 0 0 405 30
08/09/17 Video View Zimmerman, Ryan WSH Guerra, Javy MIA 7 Nationals Pa... JE 367 99.1 29.1 63.0 79 0 0 0 367 25
08/10/17 Video View Stanton, Giancarlo MIA Roark, Tanner WSH 3 Nationals Pa... ND 422 108.4 27.5 111.0 91 0 1 0 421 30
08/10/17 Video View Goodwin, Brian WSH Tazawa, Junichi MIA 8 Nationals Pa... PL 378 102.8 36.1 63.3 126 0 2 0 376 30
08/12/17 Video View Panik, Joe SF Jackson, Edwin WSH 1 Nationals Pa... PL 407 103.2 31.5 74.2 112 0 3 0 404 30
08/13/17 Video View Rendon, Anthony WSH Strickland, Hunter SF 8 Nationals Pa... PL 407 105.7 27.5 111.1 86 -1 2 0 406 30
08/13/17 Video View Murphy, Daniel WSH Moore, Matt SF 3 Nationals Pa... PL 399 100.9 27.9 100.1 92 -2 1 0 400 26
08/13/17 Video View Zimmerman, Ryan WSH Moore, Matt SF 6 Nationals Pa... JE 396 105.5 22.2 101.6 63 0 1 0 395 17
08/13/17 Video View Sandoval, Pablo SF Scherzer, Max WSH 7 Nationals Pa... ND 444 115.3 28.4 59.1 97 0 1 0 442 30
08/13/17 Video View Kendrick, Howard WSH Suarez, Albert SF 11 Nationals Pa... JE 394 99.1 29.4 98.7 97 0 1 0 394 12
08/15/17 Video View Kendrick, Howard WSH Skaggs, Tyler LAA 3 Nationals Pa... JE 387 98.2 30.1 100.0 99 -2 1 0 387 13
08/15/17 Video View Kendrick, Howard WSH Skaggs, Tyler LAA 5 Nationals Pa... PL 406 102.0 29.9 77.7 103 0 1 0 404 29
08/15/17 Video View Pennington, Cliff LAA Kintzler, Brandon WSH 8 Nationals Pa... JE 413 103.2 24.2 91.9 79 0 0 0 413 16
08/16/17 Video View Zimmerman, Ryan WSH Nolasco, Ricky LAA 1 Nationals Pa... PL 429 109.7 22.2 98.7 72 0 0 0 428 30
08/16/17 Video View Valbuena, Luis LAA Roark, Tanner WSH 5 Nationals Pa... PL 406 99.9 31.3 87.4 112 0 3 0 402 7
08/16/17 Video View Calhoun, Kole LAA Roark, Tanner WSH 6 Nationals Pa... ND 420 105.5 31.5 74.6 118 0 4 0 416 30
08/25/17 Video View Lind, Adam WSH Ramos, A.J. NYM 9 Nationals Pa... JE 417 102.3 27.4 91.9 96 0 0 0 416 22
08/26/17 Video View Flores, Wilmer NYM Gonzalez, Gio WSH 6 Nationals Pa... JE 391 105.7 21.3 100.1 59 0 0 0 391 4
08/27/17 Video View Cabrera, Asdrubal NYM Fedde, Erick WSH 1 Nationals Pa... PL 368 102.5 26.0 60.7 67 -1 1 0 369 28
08/27/17 Video View Flores, Wilmer NYM Fedde, Erick WSH 3 Nationals Pa... JE 373 101.7 26.7 116.2 70 -1 1 0 373 28
08/27/17 Video View Rosario, Amed NYM Blanton, Joe WSH 8 Nationals Pa... JE 403 100.6 26.5 87.1 89 -2 0 0 404 7
08/27/17 Video View Nimmo, Brandon NYM Roark, Tanner WSH 6 Nationals Pa... PL 419 110.3 19.0 87.6 59 0 0 0 419 22
08/27/17 Video View Lind, Adam WSH Goeddel, Erik NYM 8 Nationals Pa... JE 365 98.3 30.3 116.7 84 0 0 0 365 26
08/28/17 Video View Yelich, Christian MIA Scherzer, Max WSH 4 Nationals Pa... PL 366 98.8 30.0 117.4 83 -1 0 0 366 30
08/28/17 Video View Werth, Jayson WSH Urena, Jose MIA 4 Nationals Pa... ND 421 110.6 33.1 115.0 130 -1 0 0 422 30
08/29/17 Video View Stanton, Giancarlo MIA Jackson, Edwin WSH 1 Nationals Pa... ND 442 111.0 25.2 103.5 89 0 0 0 442 30
08/30/17 Video View Strasburg, Stephen WSH Conley, Adam MIA 5 Nationals Pa... PL 407 101.6 27.1 83.1 91 -2 1 0 407 24
08/30/17 Video View Difo, Wilmer WSH Conley, Adam MIA 5 Nationals Pa... JE 398 99.1 29.5 98.6 96 3 1 0 394 8
09/07/17 Video View Alfaro, Jorge PHI Roark, Tanner WSH 3 Nationals Pa... JE 403 106.1 21.3 97.1 63 0 0 0 403 12
09/07/17 Video View Joseph, Tommy PHI Roark, Tanner WSH 4 Nationals Pa... JE 346 107.3 41.1 116.3 171 2 -1 0 344 24
09/08/17 Video View Williams, Nick PHI Scherzer, Max WSH 1 Nationals Pa... JE 399 101.8 23.9 84.8 74 0 0 0 399 4
09/08/17 Video View Taylor, Michael WSH Thompson, Jake PHI 3 Nationals Pa... WS/L 329 104.3 15.4 93.7 32 0 0 0 329 0
09/08/17 Video View Franco, Maikel PHI Kelley, Shawn WSH 9 Nationals Pa... ND 419 111.1 25.2 114.1 77 -1 0 0 419 30
09/08/17 Video View Hoskins, Rhys PHI Perez, Oliver WSH 7 Nationals Pa... JE 394 102.5 23.5 98.7 70 0 0 0 395 8
09/08/17 Video View Turner, Trea WSH Rios, Yacksel PHI 6 Nationals Pa... PL 417 111.5 22.5 106.7 68 -1 0 0 418 30
09/09/17 Video View Kendrick, Howard WSH Leiter Jr., Mark PHI 1 Nationals Pa... PL 391 101.8 33.9 104.0 127 -3 0 0 394 30
09/09/17 Video View Hoskins, Rhys PHI Jackson, Edwin WSH 2 Nationals Pa... PL 376 100.4 29.7 113.7 89 -3 0 0 379 30
09/09/17 Video View Franco, Maikel PHI Jackson, Edwin WSH 2 Nationals Pa... PL 406 101.8 30.1 98.8 110 -2 0 0 408 28
09/09/17 Video View Taylor, Michael WSH Leiter Jr., Mark PHI 4 Nationals Pa... PL 390 104.4 25.6 110.5 74 -2 -1 0 392 30
09/10/17 Video View Turner, Trea WSH Lively, Ben PHI 8 Nationals Pa... PL 382 105.8 33.5 114.2 127 -21 1 0 401 30
09/12/17 Video View Freeman, Freddie ATL Gonzalez, Gio WSH 3 Nationals Pa... PL 445 110.2 22.0 91.5 78 0 0 0 445 30
09/12/17 Video View Albies, Ozzie ATL Cole, A.J. WSH 7 Nationals Pa... JE 394 104.4 24.4 74.2 70 0 0 0 394 27
09/13/17 Video View Kemp, Matt ATL Kintzler, Brandon WSH 7 Nationals Pa... PL 394 109.0 23.3 114.9 62 1 1 0 393 30
09/14/17 Video View Albies, Ozzie ATL Roark, Tanner WSH 6 Nationals Pa... JE 390 98.1 28.7 96.7 92 0 1 0 389 2
09/15/17 Video View Turner, Justin LAD Jackson, Edwin WSH 1 Nationals Pa... PL 423 107.4 24.7 101.9 80 0 1 0 422 30
09/15/17 Video View Puig, Yasiel LAD Jackson, Edwin WSH 2 Nationals Pa... JE 384 97.6 30.3 79.3 97 0 2 0 383 9
09/15/17 Video View Seager, Corey LAD Jackson, Edwin WSH 2 Nationals Pa... PL 419 103.5 25.3 87.0 85 0 0 0 418 26
09/16/17 Video View Bellinger, Cody LAD Cole, A.J. WSH 2 Nationals Pa... ND 438 113.8 21.4 78.7 69 0 1 0 437 30
09/16/17 Video View Rendon, Anthony WSH Hill, Rich LAD 4 Nationals Pa... PL 420 108.5 22.7 100.7 71 -1 0 0 419 30
09/17/17 Video View Zimmerman, Ryan WSH Stripling, Ross LAD 6 Nationals Pa... JE 408 111.1 18.1 85.9 52 -1 0 0 409 6
09/17/17 Video View Zimmerman, Ryan WSH Ravin, Josh LAD 8 Nationals Pa... PL 412 105.3 25.5 76.9 81 0 0 0 412 29
09/17/17 Video View Lind, Adam WSH Ravin, Josh LAD 8 Nationals Pa... JE 400 103.7 23.5 99.2 70 0 1 0 399 16


About HitTracker | Contact Us
© 2006-2017 HitTrackerOnline